Time;durP1;ratioP1;P1;durP2;ratioP2;P2;SDS_P1;SDS_P2;PMS_P1;PMS_P2;Temp;Humidity;BMP_temperature;BMP_pressure;BME280_temperature;BME280_humidity;BME280_pressure;Samples;Min_cycle;Max_cycle;Signal;HPM_P1;HPM_P2
2021/05/20 00:00:49;;;;;;;10.77;6.68;;;;;;;;;;5036171;28;20372;-75
2021/05/20 00:03:15;;;;;;;14.65;6.80;;;;;;;;;;5053554;28;20033;-75
2021/05/20 00:05:41;;;;;;;9.02;7.03;;;;;;;;;;5036607;28;20093;-75
2021/05/20 00:08:06;;;;;;;8.65;7.07;;;;;;;;;;5036255;28;20045;-74
2021/05/20 00:10:32;;;;;;;9.65;6.78;;;;;;;;;;5036122;28;20126;-75
2021/05/20 00:12:57;;;;;;;10.77;6.45;;;;;;;;;;5035624;28;20087;-75
2021/05/20 00:15:23;;;;;;;8.85;6.90;;;;;;;;;;5053668;28;20056;-75
2021/05/20 00:17:48;;;;;;;7.07;6.30;;;;;;;;;;5035768;28;20087;-75
2021/05/20 00:20:14;;;;;;;11.18;7.28;;;;;;;;;;5054584;28;20044;-75
2021/05/20 00:22:39;;;;;;;8.60;7.60;;;;;;;;;;5054755;28;20036;-75
2021/05/20 00:25:05;;;;;;;8.57;7.40;;;;;;;;;;5053589;28;20068;-75
2021/05/20 00:27:31;;;;;;;9.88;7.65;;;;;;;;;;5053873;28;20044;-75
2021/05/20 00:29:57;;;;;;;11.38;8.00;;;;;;;;;;5054861;28;20032;-75
2021/05/20 00:32:23;;;;;;;8.77;7.47;;;;;;;;;;5054855;28;20479;-75
2021/05/20 00:34:48;;;;;;;20.40;8.25;;;;;;;;;;5054361;28;20136;-75
2021/05/20 00:37:14;;;;;;;13.48;8.25;;;;;;;;;;5054255;28;20474;-75
2021/05/20 00:39:39;;;;;;;11.90;9.02;;;;;;;;;;5053945;28;20052;-75
2021/05/20 00:42:09;;;;;;;10.50;8.90;;;;;;;;;;5036516;28;20033;-75
2021/05/20 00:44:54;;;;;;;12.88;9.43;;;;;;;;;;5037488;28;20037;-75
2021/05/20 00:47:26;;;;;;;14.00;9.63;;;;;;;;;;5054927;28;20040;-75
2021/05/20 00:49:51;;;;;;;11.93;9.63;;;;;;;;;;5037178;28;20140;-75
2021/05/20 00:52:17;;;;;;;12.80;9.75;;;;;;;;;;5037365;28;20116;-75
2021/05/20 00:54:42;;;;;;;18.90;10.13;;;;;;;;;;5036661;28;20049;-75
2021/05/20 00:57:11;;;;;;;11.73;10.05;;;;;;;;;;5054661;28;20040;-74
2021/05/20 00:59:36;;;;;;;18.80;11.20;;;;;;;;;;5037046;28;20033;-75
2021/05/20 01:02:02;;;;;;;10.80;9.70;;;;;;;;;;5036848;28;20060;-74
2021/05/20 01:04:27;;;;;;;12.55;10.27;;;;;;;;;;5036870;28;20029;-75
2021/05/20 01:06:53;;;;;;;13.50;11.13;;;;;;;;;;5055333;28;20033;-75
2021/05/20 01:09:19;;;;;;;12.40;10.68;;;;;;;;;;5056100;28;20112;-75
2021/05/20 01:11:45;;;;;;;11.43;10.13;;;;;;;;;;5041441;28;20505;-75
2021/05/20 01:14:11;;;;;;;12.57;10.35;;;;;;;;;;5040195;28;20029;-75
2021/05/20 01:16:38;;;;;;;14.48;10.52;;;;;;;;;;5040738;28;20028;-75
2021/05/20 01:19:04;;;;;;;16.13;9.95;;;;;;;;;;5058189;28;20056;-75
2021/05/20 01:21:30;;;;;;;11.40;9.43;;;;;;;;;;5057119;28;20099;-75
2021/05/20 01:23:55;;;;;;;17.77;10.70;;;;;;;;;;5038740;28;20072;-75
2021/05/20 01:26:21;;;;;;;13.50;10.70;;;;;;;;;;5057003;28;20065;-75
2021/05/20 01:28:47;;;;;;;12.15;10.27;;;;;;;;;;5057047;28;20029;-75
2021/05/20 01:31:13;;;;;;;11.48;9.80;;;;;;;;;;5056605;28;20486;-75
2021/05/20 01:33:38;;;;;;;12.35;9.95;;;;;;;;;;5056752;28;20411;-74
2021/05/20 01:36:04;;;;;;;20.13;11.07;;;;;;;;;;5056917;28;20041;-75
2021/05/20 01:41:00;;;;;;;13.88;11.02;;;;;;;;;;5057319;28;20033;-75
2021/05/20 01:43:26;;;;;;;13.68;10.05;;;;;;;;;;5057373;28;20028;-75
2021/05/20 01:45:59;;;;;;;13.60;11.38;;;;;;;;;;5056750;28;20037;-75
2021/05/20 01:48:26;;;;;;;12.88;11.50;;;;;;;;;;5056956;28;20502;-75
2021/05/20 01:50:51;;;;;;;11.35;10.15;;;;;;;;;;5057379;28;20448;-74
2021/05/20 01:53:17;;;;;;;10.57;9.48;;;;;;;;;;5039543;28;20037;-75
2021/05/20 01:55:43;;;;;;;13.95;10.00;;;;;;;;;;5057710;28;20124;-78
2021/05/20 01:58:08;;;;;;;12.90;10.27;;;;;;;;;;5058418;28;20033;-75
2021/05/20 02:00:34;;;;;;;11.68;10.18;;;;;;;;;;5041111;28;20391;-75
2021/05/20 02:02:59;;;;;;;11.52;10.07;;;;;;;;;;5057722;28;20032;-75
2021/05/20 02:05:24;;;;;;;13.15;10.60;;;;;;;;;;5040133;28;20467;-75
2021/05/20 02:07:50;;;;;;;12.50;11.07;;;;;;;;;;5057747;28;20501;-75
2021/05/20 02:10:16;;;;;;;13.55;10.52;;;;;;;;;;5057268;28;20025;-75
2021/05/20 02:12:41;;;;;;;15.30;10.60;;;;;;;;;;5057602;28;20104;-75
2021/05/20 02:15:07;;;;;;;13.82;10.85;;;;;;;;;;5058058;28;20107;-75
2021/05/20 02:17:33;;;;;;;14.45;11.23;;;;;;;;;;5058142;28;20087;-75
2021/05/20 02:19:59;;;;;;;13.82;11.23;;;;;;;;;;5043107;28;20401;-75
2021/05/20 02:22:24;;;;;;;14.18;10.70;;;;;;;;;;5042048;28;20124;-75
2021/05/20 02:24:50;;;;;;;12.00;10.80;;;;;;;;;;5043048;28;20072;-75
2021/05/20 02:27:15;;;;;;;17.63;11.27;;;;;;;;;;5026163;28;20418;-75
2021/05/20 02:29:40;;;;;;;10.75;9.65;;;;;;;;;;5025094;28;20098;-75
2021/05/20 02:32:06;;;;;;;11.02;9.75;;;;;;;;;;5054231;28;20479;-75
2021/05/20 02:34:31;;;;;;;13.43;11.27;;;;;;;;;;5055123;28;20049;-75
2021/05/20 02:36:57;;;;;;;15.85;11.40;;;;;;;;;;5055449;28;20063;-75
2021/05/20 02:39:22;;;;;;;12.77;11.23;;;;;;;;;;5054218;28;20108;-76
2021/05/20 02:41:48;;;;;;;13.00;11.13;;;;;;;;;;5055041;28;20116;-76
2021/05/20 02:44:14;;;;;;;13.07;10.20;;;;;;;;;;5055583;28;20044;-76
2021/05/20 02:46:39;;;;;;;15.48;10.85;;;;;;;;;;5021727;28;20033;-77
2021/05/20 02:49:04;;;;;;;13.30;10.35;;;;;;;;;;5058550;28;20114;-77
2021/05/20 02:51:30;;;;;;;12.45;10.30;;;;;;;;;;5055421;28;20032;-77
2021/05/20 02:53:56;;;;;;;12.30;10.05;;;;;;;;;;5037109;28;20082;-77
2021/05/20 02:56:21;;;;;;;10.50;9.43;;;;;;;;;;5055406;28;20499;-77
2021/05/20 02:58:46;;;;;;;11.00;8.20;;;;;;;;;;5054400;28;20569;-76
2021/05/20 03:01:24;;;;;;;12.35;8.55;;;;;;;;;;5059017;28;20044;-75
2021/05/20 03:03:49;;;;;;;10.65;8.30;;;;;;;;;;5061462;28;20029;-76
2021/05/20 03:06:15;;;;;;;9.13;8.10;;;;;;;;;;5060011;28;20047;-76
2021/05/20 03:08:41;;;;;;;10.18;8.38;;;;;;;;;;5039945;28;20044;-75
2021/05/20 03:11:06;;;;;;;9.35;8.25;;;;;;;;;;5058048;28;20072;-75
2021/05/20 03:13:32;;;;;;;9.38;8.07;;;;;;;;;;5058936;28;20390;-75
2021/05/20 03:15:57;;;;;;;8.27;7.07;;;;;;;;;;5058397;28;20395;-75
2021/05/20 03:18:23;;;;;;;8.93;7.97;;;;;;;;;;5059157;28;20090;-75
2021/05/20 03:20:49;;;;;;;9.10;8.10;;;;;;;;;;5058506;28;20037;-75
2021/05/20 03:23:14;;;;;;;9.25;8.10;;;;;;;;;;5055797;28;20029;-75
2021/05/20 03:25:39;;;;;;;8.57;7.68;;;;;;;;;;5054213;28;20037;-75
2021/05/20 03:28:05;;;;;;;9.65;8.55;;;;;;;;;;5054096;28;20043;-75
2021/05/20 03:30:30;;;;;;;8.38;7.47;;;;;;;;;;5036924;28;20060;-75
2021/05/20 03:32:56;;;;;;;8.80;7.80;;;;;;;;;;5053307;28;20107;-75
2021/05/20 03:35:21;;;;;;;8.82;7.85;;;;;;;;;;5020596;28;20037;-75
2021/05/20 03:37:47;;;;;;;9.80;8.63;;;;;;;;;;5055044;28;20033;-75
2021/05/20 03:40:12;;;;;;;11.70;7.25;;;;;;;;;;5037596;28;20375;-75
2021/05/20 03:42:38;;;;;;;10.75;8.80;;;;;;;;;;5037180;28;20044;-75
2021/05/20 03:45:05;;;;;;;9.60;8.60;;;;;;;;;;5055274;28;20044;-75
2021/05/20 03:47:30;;;;;;;11.90;9.10;;;;;;;;;;5054518;28;20071;-75
2021/05/20 03:49:55;;;;;;;10.13;8.68;;;;;;;;;;5055468;28;20033;-75
2021/05/20 03:52:21;;;;;;;10.68;9.23;;;;;;;;;;5055312;28;20403;-75
2021/05/20 03:54:46;;;;;;;11.45;9.45;;;;;;;;;;5055805;28;20513;-75
2021/05/20 03:57:12;;;;;;;13.95;9.63;;;;;;;;;;5055449;28;20119;-75
2021/05/20 03:59:37;;;;;;;13.98;8.55;;;;;;;;;;5037236;28;20037;-75
2021/05/20 04:02:04;;;;;;;13.13;9.20;;;;;;;;;;5038103;28;20063;-75
2021/05/20 04:04:29;;;;;;;9.73;8.55;;;;;;;;;;5055637;28;20029;-75
2021/05/20 04:06:54;;;;;;;13.32;9.32;;;;;;;;;;5055321;28;20051;-75
2021/05/20 04:09:20;;;;;;;10.80;9.52;;;;;;;;;;5038752;28;20040;-75
2021/05/20 04:11:45;;;;;;;13.13;9.80;;;;;;;;;;5038664;28;20040;-75
2021/05/20 04:14:11;;;;;;;13.50;10.18;;;;;;;;;;5020794;28;20047;-75
2021/05/20 04:16:36;;;;;;;11.43;9.35;;;;;;;;;;5056506;28;20107;-75
2021/05/20 04:19:04;;;;;;;10.55;9.45;;;;;;;;;;5056377;28;20037;-75
2021/05/20 04:21:30;;;;;;;12.68;10.93;;;;;;;;;;5056569;28;20036;-75
2021/05/20 04:23:56;;;;;;;12.25;10.77;;;;;;;;;;5056972;28;20063;-75
2021/05/20 04:26:21;;;;;;;10.88;9.77;;;;;;;;;;5056099;28;20028;-75
2021/05/20 04:28:48;;;;;;;25.10;10.13;;;;;;;;;;5056361;28;20044;-75
2021/05/20 04:31:14;;;;;;;9.98;8.95;;;;;;;;;;5055674;28;20035;-75
2021/05/20 04:33:41;;;;;;;11.07;9.85;;;;;;;;;;5055826;28;20045;-75
2021/05/20 04:36:06;;;;;;;13.65;9.57;;;;;;;;;;5055952;28;20033;-75
2021/05/20 04:38:32;;;;;;;13.90;9.48;;;;;;;;;;5056439;28;20075;-75
2021/05/20 04:40:57;;;;;;;10.27;9.05;;;;;;;;;;5056170;28;20048;-75
2021/05/20 04:43:23;;;;;;;12.05;9.77;;;;;;;;;;5055217;28;20029;-75
2021/05/20 04:45:48;;;;;;;11.95;10.13;;;;;;;;;;5053519;28;20047;-75
2021/05/20 04:48:14;;;;;;;12.88;10.35;;;;;;;;;;5035157;28;20135;-75
2021/05/20 04:50:40;;;;;;;22.38;10.77;;;;;;;;;;5053349;28;20425;-75
2021/05/20 04:53:07;;;;;;;13.45;10.27;;;;;;;;;;5035720;28;20125;-75
2021/05/20 04:55:35;;;;;;;16.13;10.60;;;;;;;;;;5053759;28;20451;-75
2021/05/20 04:58:00;;;;;;;10.80;9.70;;;;;;;;;;5054200;28;20131;-75
2021/05/20 05:00:26;;;;;;;12.95;9.65;;;;;;;;;;5054912;28;20120;-75
2021/05/20 05:02:51;;;;;;;10.98;9.75;;;;;;;;;;5054428;28;20029;-75
2021/05/20 05:05:17;;;;;;;13.15;10.20;;;;;;;;;;5036486;28;20039;-75
2021/05/20 05:07:43;;;;;;;11.77;10.25;;;;;;;;;;5054514;28;20029;-75
2021/05/20 05:10:09;;;;;;;12.90;10.23;;;;;;;;;;5054746;28;20064;-75
2021/05/20 05:12:35;;;;;;;16.05;10.63;;;;;;;;;;5054107;28;20033;-75
2021/05/20 05:15:00;;;;;;;13.63;10.45;;;;;;;;;;5037675;28;20475;-75
2021/05/20 05:17:26;;;;;;;12.52;10.27;;;;;;;;;;5020166;28;20158;-75
2021/05/20 05:19:51;;;;;;;12.13;10.70;;;;;;;;;;5037683;28;20045;-75
2021/05/20 05:22:17;;;;;;;13.77;10.90;;;;;;;;;;5055403;28;20033;-76
2021/05/20 05:24:43;;;;;;;13.05;10.77;;;;;;;;;;5055638;28;20064;-75
2021/05/20 05:27:08;;;;;;;13.65;11.43;;;;;;;;;;5055161;28;20044;-75
2021/05/20 05:29:34;;;;;;;15.45;13.50;;;;;;;;;;5055158;28;20041;-75
2021/05/20 05:32:02;;;;;;;15.60;13.68;;;;;;;;;;5055206;28;20037;-76
2021/05/20 05:34:27;;;;;;;14.93;13.30;;;;;;;;;;5056274;28;20075;-75
2021/05/20 05:36:53;;;;;;;14.18;12.27;;;;;;;;;;5056162;28;20045;-75
2021/05/20 05:39:18;;;;;;;16.00;13.38;;;;;;;;;;5055511;28;20062;-75
2021/05/20 05:41:44;;;;;;;17.52;13.95;;;;;;;;;;5056211;28;20479;-75
2021/05/20 05:44:12;;;;;;;18.25;14.50;;;;;;;;;;5057180;28;20061;-75
2021/05/20 05:46:37;;;;;;;16.33;13.65;;;;;;;;;;5056870;28;20082;-75
2021/05/20 05:49:22;;;;;;;17.38;14.60;;;;;;;;;;5057774;28;20119;-75
2021/05/20 05:52:08;;;;;;;16.77;14.77;;;;;;;;;;5039573;28;20059;-75
2021/05/20 05:54:33;;;;;;;17.58;15.45;;;;;;;;;;5058087;28;20036;-75
2021/05/20 05:56:59;;;;;;;22.27;16.17;;;;;;;;;;5061664;28;20068;-76
2021/05/20 05:59:24;;;;;;;18.92;15.93;;;;;;;;;;5063480;28;20041;-76
2021/05/20 06:01:50;;;;;;;17.27;15.15;;;;;;;;;;5061820;28;20526;-76
2021/05/20 06:04:16;;;;;;;20.65;15.88;;;;;;;;;;5062156;28;20041;-75
2021/05/20 06:06:43;;;;;;;17.92;15.20;;;;;;;;;;5061535;28;20041;-75
2021/05/20 06:09:09;;;;;;;21.55;15.52;;;;;;;;;;5060774;28;20037;-76
2021/05/20 06:11:34;;;;;;;17.70;15.48;;;;;;;;;;5042406;28;20063;-75
2021/05/20 06:14:05;;;;;;;17.70;15.52;;;;;;;;;;5058402;28;20036;-77
2021/05/20 06:16:34;;;;;;;17.55;15.25;;;;;;;;;;5061660;28;20056;-77
2021/05/20 06:18:59;;;;;;;18.90;16.35;;;;;;;;;;5056064;28;20041;-77
2021/05/20 06:21:25;;;;;;;16.00;14.25;;;;;;;;;;5057270;28;20108;-78
2021/05/20 06:23:51;;;;;;;21.40;15.73;;;;;;;;;;5056724;28;20108;-76
2021/05/20 06:26:17;;;;;;;21.63;16.88;;;;;;;;;;5038627;28;20032;-76
2021/05/20 06:28:42;;;;;;;20.45;16.85;;;;;;;;;;5037861;28;20545;-76
2021/05/20 06:31:07;;;;;;;17.67;14.55;;;;;;;;;;5039729;28;20047;-76
2021/05/20 06:33:33;;;;;;;19.80;15.95;;;;;;;;;;5038108;28;20130;-76
2021/05/20 06:35:58;;;;;;;19.38;15.18;;;;;;;;;;5055359;28;20075;-77
2021/05/20 06:38:24;;;;;;;22.70;15.00;;;;;;;;;;5055222;28;20133;-77
2021/05/20 06:40:49;;;;;;;18.55;14.57;;;;;;;;;;5040732;28;20352;-80
2021/05/20 06:43:15;;;;;;;16.02;13.68;;;;;;;;;;5060291;28;20075;-80
2021/05/20 06:45:41;;;;;;;16.50;12.93;;;;;;;;;;5060325;28;20423;-79
2021/05/20 06:48:06;;;;;;;15.70;12.98;;;;;;;;;;5060291;28;20037;-79
2021/05/20 06:50:32;;;;;;;18.40;13.95;;;;;;;;;;5042944;28;20122;-78
2021/05/20 06:52:58;;;;;;;19.13;12.95;;;;;;;;;;5061083;28;20052;-78
2021/05/20 06:55:23;;;;;;;16.13;12.82;;;;;;;;;;5062677;28;20033;-78
2021/05/20 07:00:35;;;;;;;16.70;13.98;;;;;;;;;;5055234;28;20033;-78
2021/05/20 07:03:00;;;;;;;15.15;12.70;;;;;;;;;;5055164;28;20088;-75
2021/05/20 07:05:26;;;;;;;15.65;13.13;;;;;;;;;;5034972;28;20032;-76
2021/05/20 07:07:52;;;;;;;16.70;12.27;;;;;;;;;;5053882;28;20083;-77
2021/05/20 07:10:18;;;;;;;15.88;12.60;;;;;;;;;;5038805;28;20029;-79
2021/05/20 07:12:43;;;;;;;14.82;11.63;;;;;;;;;;5060289;28;20052;-80
2021/05/20 07:15:10;;;;;;;14.25;11.57;;;;;;;;;;5058623;28;20044;-77
2021/05/20 07:17:36;;;;;;;14.07;11.75;;;;;;;;;;5060553;28;20410;-80
2021/05/20 07:20:03;;;;;;;15.32;12.45;;;;;;;;;;5044059;28;20040;-77
2021/05/20 07:22:29;;;;;;;16.00;12.00;;;;;;;;;;5054963;28;20033;-77
2021/05/20 07:24:54;;;;;;;14.82;12.15;;;;;;;;;;5053124;28;20055;-76
2021/05/20 07:27:20;;;;;;;12.52;10.60;;;;;;;;;;5054541;28;20491;-77
2021/05/20 07:29:45;;;;;;;11.43;10.00;;;;;;;;;;5036384;28;20032;-76
2021/05/20 07:32:17;;;;;;;16.50;10.77;;;;;;;;;;5055466;28;20087;-76
2021/05/20 07:34:42;;;;;;;14.65;11.02;;;;;;;;;;5036139;28;20049;-77
2021/05/20 07:37:07;;;;;;;12.43;10.65;;;;;;;;;;5054199;28;20079;-76
2021/05/20 07:39:33;;;;;;;13.27;10.05;;;;;;;;;;5035786;28;20037;-76
2021/05/20 07:41:58;;;;;;;10.85;9.48;;;;;;;;;;5053988;28;20028;-76
2021/05/20 07:44:24;;;;;;;10.55;9.27;;;;;;;;;;5053584;28;20045;-77
2021/05/20 07:46:50;;;;;;;11.30;8.30;;;;;;;;;;5053889;28;20090;-77
2021/05/20 07:49:15;;;;;;;9.80;8.48;;;;;;;;;;5036636;28;20036;-78
2021/05/20 07:51:41;;;;;;;14.57;8.30;;;;;;;;;;5055747;28;20043;-79
2021/05/20 07:54:07;;;;;;;10.45;7.70;;;;;;;;;;5056495;28;20068;-80
2021/05/20 07:56:33;;;;;;;9.65;7.93;;;;;;;;;;5056236;28;20398;-78
2021/05/20 07:58:59;;;;;;;14.13;9.25;;;;;;;;;;5054379;28;20033;-78
2021/05/20 08:01:24;;;;;;;10.63;8.52;;;;;;;;;;5057444;28;20047;-80
2021/05/20 08:03:54;;;;;;;10.55;7.82;;;;;;;;;;5063665;28;20421;-80
2021/05/20 08:06:26;;;;;;;11.25;7.43;;;;;;;;;;5061645;28;20092;-80
2021/05/20 08:09:01;;;;;;;10.05;7.97;;;;;;;;;;5065638;28;20569;-79
2021/05/20 08:11:26;;;;;;;15.07;7.93;;;;;;;;;;5061203;28;20035;-77
2021/05/20 08:13:52;;;;;;;11.98;8.23;;;;;;;;;;5045389;28;20033;-79
2021/05/20 08:16:17;;;;;;;9.93;8.27;;;;;;;;;;5066127;28;20033;-78
2021/05/20 08:18:43;;;;;;;13.30;8.43;;;;;;;;;;5063880;28;20029;-77
2021/05/20 08:21:09;;;;;;;10.13;8.65;;;;;;;;;;5062825;28;20032;-77
2021/05/20 08:23:35;;;;;;;10.25;8.55;;;;;;;;;;5063929;28;20027;-78
2021/05/20 08:26:02;;;;;;;9.60;7.63;;;;;;;;;;5062742;28;20092;-79
2021/05/20 08:28:28;;;;;;;8.32;6.68;;;;;;;;;;5037434;28;20056;-77
2021/05/20 08:30:54;;;;;;;9.57;6.85;;;;;;;;;;5034122;28;20032;-80
2021/05/20 08:33:19;;;;;;;6.53;5.85;;;;;;;;;;5053014;28;20045;-78
2021/05/20 08:35:45;;;;;;;7.22;6.53;;;;;;;;;;5055667;28;20112;-78
2021/05/20 08:38:10;;;;;;;9.93;6.63;;;;;;;;;;5059318;28;20078;-79
2021/05/20 08:40:36;;;;;;;7.95;5.88;;;;;;;;;;5060656;28;20088;-78
2021/05/20 08:43:01;;;;;;;6.85;5.97;;;;;;;;;;5037311;28;20111;-78
2021/05/20 08:45:29;;;;;;;7.97;6.03;;;;;;;;;;5056192;28;20040;-79
2021/05/20 08:47:56;;;;;;;20.33;8.20;;;;;;;;;;5040161;28;20041;-79
2021/05/20 08:50:25;;;;;;;10.10;7.38;;;;;;;;;;5059533;28;20036;-78
2021/05/20 08:52:51;;;;;;;15.48;7.63;;;;;;;;;;5059313;28;20029;-79
2021/05/20 08:55:19;;;;;;;7.25;6.15;;;;;;;;;;5061735;28;20530;-79
2021/05/20 08:57:45;;;;;;;7.43;5.63;;;;;;;;;;5061538;28;20041;-80
2021/05/20 09:00:13;;;;;;;6.93;5.40;;;;;;;;;;5061485;28;20091;-79
2021/05/20 09:02:39;;;;;;;18.20;7.47;;;;;;;;;;5060776;28;20041;-79
2021/05/20 09:05:10;;;;;;;7.68;5.05;;;;;;;;;;5060228;28;20466;-77
2021/05/20 09:07:37;;;;;;;8.00;5.00;;;;;;;;;;5055270;28;20047;-79
2021/05/20 09:10:11;;;;;;;9.00;6.13;;;;;;;;;;5058677;28;20098;-79
2021/05/20 09:12:37;;;;;;;6.00;4.82;;;;;;;;;;5040676;28;20041;-79
2021/05/20 09:15:16;;;;;;;6.55;4.82;;;;;;;;;;5040923;28;20068;-79
2021/05/20 09:17:42;;;;;;;8.25;4.93;;;;;;;;;;5048692;28;20037;-79
2021/05/20 09:20:08;;;;;;;8.10;4.43;;;;;;;;;;5058815;28;20033;-79
2021/05/20 09:22:35;;;;;;;8.60;5.32;;;;;;;;;;5059749;28;20059;-79
2021/05/20 09:25:01;;;;;;;7.40;4.90;;;;;;;;;;5059974;28;20044;-79
2021/05/20 09:27:33;;;;;;;7.20;4.88;;;;;;;;;;5040821;28;20037;-79
2021/05/20 09:30:08;;;;;;;7.22;5.10;;;;;;;;;;5041918;28;20065;-78
2021/05/20 09:33:08;;;;;;;5.33;4.73;;;;;;;;;;5045122;28;20048;-79
2021/05/20 09:35:36;;;;;;;12.57;5.57;;;;;;;;;;5062259;28;20056;-78
2021/05/20 09:38:04;;;;;;;7.28;5.38;;;;;;;;;;5060887;28;20522;-80
2021/05/20 09:40:34;;;;;;;11.90;5.13;;;;;;;;;;5042965;28;20040;-79
2021/05/20 09:43:00;;;;;;;5.85;4.75;;;;;;;;;;5061859;28;20058;-78
2021/05/20 09:45:27;;;;;;;6.40;4.50;;;;;;;;;;5060015;28;20045;-79
2021/05/20 09:48:06;;;;;;;6.85;4.97;;;;;;;;;;5059367;28;20040;-78
2021/05/20 09:50:35;;;;;;;5.57;4.60;;;;;;;;;;5062931;28;20044;-78
2021/05/20 09:53:01;;;;;;;6.40;4.47;;;;;;;;;;5061669;28;20033;-80
2021/05/20 09:55:28;;;;;;;7.20;4.40;;;;;;;;;;5060863;28;20051;-79
2021/05/20 09:57:56;;;;;;;8.15;4.18;;;;;;;;;;5061717;28;20040;-78
2021/05/20 10:00:23;;;;;;;7.07;3.55;;;;;;;;;;5061559;28;20033;-79
2021/05/20 10:03:09;;;;;;;9.60;4.53;;;;;;;;;;5061673;28;20037;-79
2021/05/20 10:05:35;;;;;;;;;;;;;;;;;;5060038;28;20037;-79
2021/05/20 10:08:06;;;;;;;4.90;3.53;;;;;;;;;;5061354;28;20370;-78
2021/05/20 10:10:37;;;;;;;6.30;3.75;;;;;;;;;;5059413;28;20044;-79
2021/05/20 10:13:11;;;;;;;5.53;4.03;;;;;;;;;;5061365;28;20128;-78
2021/05/20 10:15:38;;;;;;;7.32;4.20;;;;;;;;;;5060339;28;20040;-78
2021/05/20 10:18:08;;;;;;;10.85;5.25;;;;;;;;;;5059045;28;20394;-79
2021/05/20 10:20:35;;;;;;;6.80;4.15;;;;;;;;;;5058596;28;20040;-76
2021/05/20 10:23:01;;;;;;;6.50;4.60;;;;;;;;;;5057315;28;20368;-78
2021/05/20 10:25:27;;;;;;;6.40;4.22;;;;;;;;;;5056648;28;20040;-79
2021/05/20 10:27:52;;;;;;;7.05;3.88;;;;;;;;;;5048931;28;20036;-77
2021/05/20 10:30:19;;;;;;;3.90;2.83;;;;;;;;;;5037611;28;20044;-77
2021/05/20 10:32:45;;;;;;;4.32;3.05;;;;;;;;;;5051947;28;20037;-76
2021/05/20 10:35:15;;;;;;;5.78;3.25;;;;;;;;;;5035132;28;20108;-76
2021/05/20 10:37:42;;;;;;;4.80;3.47;;;;;;;;;;5034352;28;20029;-78
2021/05/20 10:40:20;;;;;;;4.22;2.45;;;;;;;;;;5037172;28;20451;-77
2021/05/20 10:42:45;;;;;;;3.88;2.17;;;;;;;;;;5020522;28;20033;-77
2021/05/20 10:45:20;;;;;;;6.28;2.20;;;;;;;;;;5037163;28;20053;-78
2021/05/20 10:48:18;;;;;;;3.47;1.95;;;;;;;;;;5021795;28;20037;-79
2021/05/20 10:51:15;;;;;;;5.50;3.35;;;;;;;;;;5008084;28;20045;-79
2021/05/20 10:53:50;;;;;;;10.77;3.97;;;;;;;;;;5023590;28;20486;-79
2021/05/20 10:56:15;;;;;;;3.78;2.60;;;;;;;;;;5040038;28;20117;-79
2021/05/20 10:58:44;;;;;;;4.03;2.30;;;;;;;;;;5040150;28;20128;-79
2021/05/20 11:01:25;;;;;;;3.13;2.15;;;;;;;;;;5041261;28;20041;-79
2021/05/20 11:03:56;;;;;;;5.22;2.60;;;;;;;;;;5041829;28;20037;-79
2021/05/20 11:06:37;;;;;;;5.63;2.30;;;;;;;;;;5041602;28;20045;-79
2021/05/20 11:09:10;;;;;;;3.28;2.22;;;;;;;;;;5023264;28;20033;-79
2021/05/20 11:11:47;;;;;;;11.70;2.47;;;;;;;;;;5041584;28;20045;-79
2021/05/20 11:14:12;;;;;;;6.35;2.20;;;;;;;;;;5039959;28;20403;-79
2021/05/20 11:16:39;;;;;;;6.80;2.53;;;;;;;;;;5040176;28;20037;-79
2021/05/20 11:24:27;;;;;;;4.65;2.90;;;;;;;;;;5039017;28;20124;-79
2021/05/20 11:26:54;;;;;;;3.55;2.78;;;;;;;;;;5040272;28;20041;-79
2021/05/20 11:29:26;;;;;;;5.32;2.70;;;;;;;;;;5043480;28;20498;-79
2021/05/20 11:32:00;;;;;;;5.68;2.30;;;;;;;;;;5029959;28;20045;-80
2021/05/20 11:37:38;;;;;;;4.97;3.15;;;;;;;;;;5025844;28;20064;-79
2021/05/20 11:40:33;;;;;;;6.15;3.13;;;;;;;;;;5066699;28;20041;-79
2021/05/20 11:43:00;;;;;;;6.05;3.15;;;;;;;;;;5063848;28;20064;-78
2021/05/20 11:45:28;;;;;;;9.90;3.78;;;;;;;;;;5038237;28;20036;-78
2021/05/20 11:47:54;;;;;;;4.50;2.72;;;;;;;;;;5040538;28;20021;-81
2021/05/20 11:50:23;;;;;;;4.28;2.60;;;;;;;;;;5040483;28;20041;-80
2021/05/20 11:52:48;;;;;;;6.03;3.38;;;;;;;;;;5061149;28;20482;-79
2021/05/20 11:55:14;;;;;;;4.72;2.72;;;;;;;;;;5062880;28;20120;-79
2021/05/20 11:57:39;;;;;;;3.63;2.65;;;;;;;;;;5062507;28;20029;-79
2021/05/20 12:00:05;;;;;;;5.43;3.33;;;;;;;;;;5044375;28;20091;-79
2021/05/20 12:02:39;;;;;;;7.22;3.30;;;;;;;;;;5063268;28;20036;-79
2021/05/20 12:05:09;;;;;;;7.47;3.70;;;;;;;;;;5044542;28;20518;-79
2021/05/20 12:07:37;;;;;;;4.60;2.88;;;;;;;;;;5045053;28;20044;-79
2021/05/20 12:10:06;;;;;;;3.47;2.80;;;;;;;;;;5044255;28;20033;-79
2021/05/20 12:12:31;;;;;;;4.32;2.40;;;;;;;;;;5061730;28;20185;-79
2021/05/20 12:14:57;;;;;;;5.53;3.13;;;;;;;;;;5062830;28;20033;-79
2021/05/20 12:17:23;;;;;;;7.20;3.30;;;;;;;;;;5061793;28;20049;-80
2021/05/20 12:19:54;;;;;;;10.38;5.20;;;;;;;;;;5061662;28;20063;-80
2021/05/20 12:22:22;;;;;;;3.85;3.10;;;;;;;;;;5064910;28;20059;-80
2021/05/20 12:25:04;;;;;;;8.32;3.22;;;;;;;;;;5062441;28;20036;-80
2021/05/20 12:27:35;;;;;;;8.32;2.90;;;;;;;;;;5040724;28;20044;-80
2021/05/20 12:30:03;;;;;;;7.97;3.30;;;;;;;;;;5041836;28;20098;-80
2021/05/20 12:32:41;;;;;;;10.50;3.20;;;;;;;;;;5059823;28;20043;-80
2021/05/20 12:35:32;;;;;;;4.05;2.40;;;;;;;;;;5059486;28;20063;-80
2021/05/20 12:38:14;;;;;;;3.92;2.80;;;;;;;;;;5040548;28;20546;-80
2021/05/20 12:40:41;;;;;;;5.70;2.42;;;;;;;;;;5041210;28;20029;-80
2021/05/20 12:43:09;;;;;;;4.97;2.92;;;;;;;;;;5059372;28;20107;-80
2021/05/20 12:45:40;;;;;;;7.72;2.80;;;;;;;;;;5060864;28;20410;-79
2021/05/20 12:48:32;;;;;;;3.53;2.70;;;;;;;;;;5059439;28;20091;-79
2021/05/20 12:51:13;;;;;;;3.83;2.28;;;;;;;;;;5069623;28;20100;-79
2021/05/20 12:53:51;;;;;;;7.05;2.10;;;;;;;;;;5072291;28;20029;-79
2021/05/20 12:56:26;;;;;;;4.82;2.33;;;;;;;;;;5069575;28;20109;-79
2021/05/20 12:59:09;;;;;;;4.50;2.85;;;;;;;;;;5064991;28;20236;-79
2021/05/20 13:01:43;;;;;;;4.68;2.58;;;;;;;;;;5063959;28;20040;-79
2021/05/20 13:04:19;;;;;;;3.60;2.20;;;;;;;;;;5065665;28;20059;-79
2021/05/20 13:06:45;;;;;;;5.32;3.20;;;;;;;;;;5069356;28;20039;-79
2021/05/20 13:09:12;;;;;;;3.97;2.50;;;;;;;;;;5067823;28;20032;-79
2021/05/20 13:11:42;;;;;;;5.97;2.45;;;;;;;;;;5067073;28;20087;-79
2021/05/20 13:14:45;;;;;;;5.75;3.08;;;;;;;;;;5066770;28;20448;-79
2021/05/20 13:17:27;;;;;;;7.63;3.03;;;;;;;;;;5066884;28;20044;-78
2021/05/20 13:24:56;;;;;;;12.88;5.20;;;;;;;;;;5056820;28;20041;-76
2021/05/20 13:27:25;;;;;;;8.98;3.78;;;;;;;;;;5056545;28;20068;-76
2021/05/20 13:29:55;;;;;;;7.88;3.72;;;;;;;;;;5056924;28;20525;-75
2021/05/20 13:32:29;;;;;;;5.82;3.55;;;;;;;;;;5038597;28;20063;-75
2021/05/20 13:34:54;;;;;;;3.20;2.80;;;;;;;;;;5056294;28;20474;-75
2021/05/20 13:37:20;;;;;;;4.35;2.80;;;;;;;;;;5055524;28;20061;-75
2021/05/20 13:39:45;;;;;;;7.25;3.22;;;;;;;;;;5056079;28;20033;-75
2021/05/20 13:42:11;;;;;;;13.30;4.88;;;;;;;;;;5056242;28;20082;-75
2021/05/20 13:44:57;;;;;;;5.28;2.95;;;;;;;;;;5056707;28;20044;-81
2021/05/20 13:47:26;;;;;;;7.35;2.95;;;;;;;;;;5062495;28;20032;-77
2021/05/20 13:49:51;;;;;;;9.15;3.67;;;;;;;;;;5033905;28;20071;-78
2021/05/20 13:52:21;;;;;;;7.93;3.17;;;;;;;;;;5064877;28;20037;-80
2021/05/20 13:54:48;;;;;;;14.43;3.78;;;;;;;;;;5064827;28;20056;-80
2021/05/20 13:57:15;;;;;;;7.82;3.75;;;;;;;;;;5029713;28;20068;-80
2021/05/20 13:59:43;;;;;;;4.93;2.90;;;;;;;;;;5043221;28;20037;-79
2021/05/20 14:02:19;;;;;;;6.75;3.13;;;;;;;;;;5061416;28;20113;-82
2021/05/20 14:04:44;;;;;;;;;;;;;;;;;;5061521;28;20041;-84
2021/05/20 14:07:12;;;;;;;11.68;4.20;;;;;;;;;;5043381;28;19920;-82
2021/05/20 14:09:39;;;;;;;7.47;3.85;;;;;;;;;;5059469;28;20033;-83
2021/05/20 14:12:05;;;;;;;12.75;4.38;;;;;;;;;;5060383;28;20048;-81
2021/05/20 14:14:32;;;;;;;11.70;4.75;;;;;;;;;;5044129;28;20059;-83
2021/05/20 14:16:58;;;;;;;9.07;3.97;;;;;;;;;;5058876;28;20033;-82
2021/05/20 14:19:24;;;;;;;8.13;3.67;;;;;;;;;;5041633;28;20036;-81
2021/05/20 14:21:50;;;;;;;7.18;3.08;;;;;;;;;;5059305;28;20041;-81
2021/05/20 14:24:16;;;;;;;10.23;4.10;;;;;;;;;;5041463;28;20025;-82
2021/05/20 14:26:43;;;;;;;5.97;3.00;;;;;;;;;;5024938;28;20037;-81
2021/05/20 14:29:09;;;;;;;6.90;2.97;;;;;;;;;;5041035;28;20131;-82
2021/05/20 14:31:34;;;;;;;5.70;2.65;;;;;;;;;;5050322;28;20160;-82
2021/05/20 14:34:00;;;;;;;4.38;2.50;;;;;;;;;;5039780;28;20053;-81
2021/05/20 14:36:26;;;;;;;3.03;2.40;;;;;;;;;;5038836;28;20083;-81
2021/05/20 14:38:52;;;;;;;3.88;2.28;;;;;;;;;;5039367;28;20039;-82
2021/05/20 14:41:17;;;;;;;4.28;2.80;;;;;;;;;;5040231;28;20079;-83
2021/05/20 14:43:43;;;;;;;6.85;3.30;;;;;;;;;;5041263;28;20041;-84
2021/05/20 14:46:08;;;;;;;7.30;3.97;;;;;;;;;;5041572;28;20033;-82
2021/05/20 14:48:35;;;;;;;6.63;4.18;;;;;;;;;;5041752;28;20064;-82
2021/05/20 14:54:07;;;;;;;6.35;3.10;;;;;;;;;;5040501;28;20083;-82
2021/05/20 14:56:39;;;;;;;8.82;3.58;;;;;;;;;;5040122;28;20052;-83
2021/05/20 15:05:01;;;;;;;6.97;3.05;;;;;;;;;;5042765;28;20033;-82